createdAt,value
2019-04-19T00:00:10.211Z,25.40
2019-04-19T00:02:42.958Z,22.30
2019-04-19T00:05:09.667Z,24.80
2019-04-19T00:07:39.737Z,25.63
2019-04-19T00:10:21.812Z,23.63
2019-04-19T00:12:46.097Z,23.47
2019-04-19T00:15:05.551Z,23.70
2019-04-19T00:17:35.459Z,27.47
2019-04-19T00:20:25.614Z,25.00
2019-04-19T00:22:49.523Z,23.83
2019-04-19T00:25:00.723Z,26.70
2019-04-19T00:27:35.267Z,23.47
2019-04-19T00:30:03.006Z,21.87
2019-04-19T00:32:38.051Z,22.10
2019-04-19T00:34:54.674Z,22.87
2019-04-19T00:37:22.645Z,25.77
2019-04-19T00:40:15.621Z,23.73
2019-04-19T00:43:01.616Z,23.80
2019-04-19T00:45:42.639Z,23.97
2019-04-19T00:48:08.469Z,22.43
2019-04-19T00:50:43.231Z,24.03
2019-04-19T00:53:11.295Z,24.93
2019-04-19T00:55:43.007Z,25.40
2019-04-19T00:58:06.348Z,24.63
2019-04-19T01:00:30.594Z,25.20
2019-04-19T01:02:57.713Z,25.23
2019-04-19T01:05:27.722Z,25.40
2019-04-19T01:07:54.090Z,24.00
2019-04-19T01:10:34.743Z,25.20
2019-04-19T01:13:05.732Z,28.63
2019-04-19T01:15:29.644Z,26.50
2019-04-19T01:18:08.434Z,24.43
2019-04-19T01:20:18.424Z,25.30
2019-04-19T01:22:50.865Z,24.40
2019-04-19T01:25:19.292Z,25.60
2019-04-19T01:27:44.675Z,27.87
2019-04-19T01:30:12.555Z,26.67
2019-04-19T01:32:49.618Z,25.20
2019-04-19T01:35:15.675Z,29.90
2019-04-19T01:37:41.119Z,28.03
2019-04-19T01:40:21.519Z,28.70
2019-04-19T01:42:52.966Z,27.63
2019-04-19T01:45:44.681Z,28.83
2019-04-19T01:48:20.443Z,31.20
2019-04-19T01:51:12.283Z,29.07
2019-04-19T01:53:39.207Z,29.67
2019-04-19T01:55:59.200Z,30.80
2019-04-19T01:58:22.624Z,30.37
2019-04-19T02:00:54.915Z,29.30
2019-04-19T02:03:23.362Z,29.40
2019-04-19T02:05:52.764Z,28.10
2019-04-19T02:08:17.571Z,29.50
2019-04-19T02:11:16.768Z,28.40
2019-04-19T02:13:38.298Z,30.27
2019-04-19T02:16:08.005Z,29.53
2019-04-19T02:18:32.775Z,29.50
2019-04-19T02:21:00.476Z,30.77
2019-04-19T02:23:28.280Z,29.77
2019-04-19T02:26:00.519Z,32.13
2019-04-19T02:28:30.896Z,33.88
2019-04-19T02:31:10.515Z,30.30
2019-04-19T02:33:55.055Z,29.40
2019-04-19T02:36:26.925Z,28.40
2019-04-19T02:39:05.338Z,28.30
2019-04-19T02:43:54.188Z,28.63
2019-04-19T02:46:32.478Z,30.50
2019-04-19T02:48:55.890Z,28.90
2019-04-19T02:53:39.218Z,27.60
2019-04-19T02:56:42.670Z,28.97
2019-04-19T02:59:18.439Z,27.30
2019-04-19T03:01:58.192Z,26.90
2019-04-19T03:04:37.730Z,26.30
2019-04-19T03:06:31.384Z,27.03
2019-04-19T03:08:50.347Z,25.73
2019-04-19T03:11:39.018Z,27.67
2019-04-19T03:14:05.264Z,26.77
2019-04-19T03:16:37.172Z,26.90
2019-04-19T03:18:57.554Z,26.33
2019-04-19T03:21:33.126Z,24.60
2019-04-19T03:23:56.564Z,26.00
2019-04-19T03:26:25.256Z,29.27
2019-04-19T03:28:46.660Z,27.43
2019-04-19T03:34:07.144Z,24.13
2019-04-19T03:36:31.055Z,24.50
2019-04-19T03:38:48.775Z,24.80
2019-04-19T03:41:43.221Z,22.50
2019-04-19T03:44:14.461Z,24.93
2019-04-19T03:46:52.304Z,25.37
2019-04-19T03:49:19.449Z,24.70
2019-04-19T03:51:40.990Z,23.50
2019-04-19T03:54:05.868Z,22.20
2019-04-19T03:56:39.409Z,23.57
2019-04-19T03:58:53.073Z,22.20
2019-04-19T04:01:19.507Z,21.23
2019-04-19T04:03:50.653Z,22.27
2019-04-19T04:06:22.179Z,20.33
2019-04-19T04:08:54.743Z,22.43
2019-04-19T04:11:50.276Z,22.03
2019-04-19T04:14:21.784Z,21.30
2019-04-19T04:16:58.240Z,21.03
2019-04-19T04:19:25.770Z,19.77
2019-04-19T04:21:54.327Z,19.70
2019-04-19T04:24:32.019Z,19.17
2019-04-19T04:27:00.163Z,18.90
2019-04-19T04:29:32.042Z,21.40
2019-04-19T04:32:03.561Z,19.43
2019-04-19T04:34:36.648Z,20.60
2019-04-19T04:37:06.387Z,20.57
2019-04-19T04:39:19.700Z,17.83
2019-04-19T04:41:47.608Z,20.20
2019-04-19T04:44:33.326Z,18.00
2019-04-19T04:47:28.778Z,17.83
2019-04-19T04:50:22.351Z,18.60
2019-04-19T04:52:45.556Z,15.90
2019-04-19T04:55:24.448Z,17.30
2019-04-19T04:57:55.724Z,17.30
2019-04-19T05:00:32.320Z,17.13
2019-04-19T05:03:06.120Z,15.40
2019-04-19T05:05:39.390Z,16.63
2019-04-19T05:08:08.869Z,16.47
2019-04-19T05:10:32.373Z,14.57
2019-04-19T05:13:18.622Z,16.40
2019-04-19T05:15:31.864Z,16.00
2019-04-19T05:18:13.758Z,16.50
2019-04-19T05:20:31.528Z,14.87
2019-04-19T05:23:00.966Z,14.60
2019-04-19T05:25:35.996Z,13.83
2019-04-19T05:28:00.791Z,15.27
2019-04-19T05:30:11.280Z,13.30
2019-04-19T05:32:43.970Z,14.03
2019-04-19T05:35:19.415Z,13.37
2019-04-19T05:38:07.570Z,13.13
2019-04-19T05:40:55.995Z,13.37
2019-04-19T05:43:54.023Z,15.60
2019-04-19T05:46:10.388Z,14.23
2019-04-19T05:48:23.618Z,13.10
2019-04-19T05:51:09.377Z,13.30
2019-04-19T05:53:22.159Z,12.80
2019-04-19T05:55:39.130Z,11.97
2019-04-19T05:58:16.548Z,13.67
2019-04-19T06:00:51.829Z,11.80
2019-04-19T06:03:14.788Z,12.93
2019-04-19T06:06:01.323Z,9.87
2019-04-19T06:08:10.416Z,13.47
2019-04-19T06:10:33.051Z,11.77
2019-04-19T06:13:04.193Z,11.43
2019-04-19T06:15:49.559Z,11.73
2019-04-19T06:18:31.761Z,12.00
2019-04-19T06:21:10.129Z,11.20
2019-04-19T06:23:40.055Z,11.57
2019-04-19T06:26:35.351Z,11.10
2019-04-19T06:28:48.564Z,11.50
2019-04-19T06:31:03.471Z,11.03
2019-04-19T06:33:33.520Z,10.40
2019-04-19T06:35:50.333Z,12.10
2019-04-19T06:38:11.755Z,11.10
2019-04-19T06:40:45.075Z,10.80
2019-04-19T06:43:15.912Z,11.70
2019-04-19T06:45:55.377Z,11.10
2019-04-19T06:48:13.050Z,11.73
2019-04-19T06:50:39.643Z,9.90
2019-04-19T06:53:03.965Z,10.47
2019-04-19T06:55:35.824Z,11.27
2019-04-19T06:58:07.529Z,11.10
2019-04-19T07:00:41.381Z,11.30
2019-04-19T07:02:58.503Z,10.53
2019-04-19T07:05:37.342Z,12.10
2019-04-19T07:08:38.739Z,10.73
2019-04-19T07:10:50.257Z,11.17
2019-04-19T07:13:11.364Z,10.00
2019-04-19T07:16:01.800Z,10.27
2019-04-19T07:18:05.962Z,9.73
2019-04-19T07:20:30.017Z,11.47
2019-04-19T07:23:05.041Z,10.40
2019-04-19T07:25:42.748Z,10.53
2019-04-19T07:27:55.570Z,10.40
2019-04-19T07:30:16.007Z,10.00
2019-04-19T07:32:47.531Z,10.80
2019-04-19T07:35:36.708Z,10.40
2019-04-19T07:37:58.678Z,10.80
2019-04-19T07:40:30.760Z,9.73
2019-04-19T07:42:56.526Z,11.37
2019-04-19T07:45:28.627Z,10.60
2019-04-19T07:47:58.421Z,10.33
2019-04-19T07:50:26.178Z,10.20
2019-04-19T07:52:56.452Z,10.27
2019-04-19T07:55:19.579Z,10.03
2019-04-19T08:00:50.388Z,10.63
2019-04-19T08:10:40.633Z,11.00
2019-04-19T08:13:16.891Z,10.60
2019-04-19T08:27:43.411Z,10.23
2019-04-19T08:30:10.203Z,10.80
2019-04-19T08:32:32.805Z,11.50
2019-04-19T08:35:02.870Z,11.43
2019-04-19T08:37:35.496Z,9.80
2019-04-19T08:40:22.024Z,12.00
2019-04-19T08:42:47.944Z,10.37
2019-04-19T08:45:01.759Z,10.43
2019-04-19T08:47:51.576Z,10.33
2019-04-19T08:50:16.648Z,9.80
2019-04-19T08:52:52.015Z,11.63
2019-04-19T08:55:30.386Z,12.03
2019-04-19T08:57:49.508Z,10.90
2019-04-19T09:02:55.649Z,10.80
2019-04-19T09:05:28.356Z,10.63
2019-04-19T09:08:05.661Z,10.23
2019-04-19T09:13:07.377Z,10.97
2019-04-19T09:15:23.903Z,10.07
2019-04-19T09:18:21.100Z,11.17
2019-04-19T09:20:24.759Z,11.43
2019-04-19T09:23:04.895Z,10.97
2019-04-19T09:25:51.874Z,10.00
2019-04-19T09:28:36.907Z,10.97
2019-04-19T09:30:52.650Z,11.10
2019-04-19T09:33:09.963Z,10.20
2019-04-19T09:35:38.532Z,10.67
2019-04-19T09:38:15.044Z,10.97
2019-04-19T09:40:39.332Z,11.90
2019-04-19T09:43:18.383Z,11.60
2019-04-19T09:45:29.723Z,11.63
2019-04-19T09:47:56.858Z,9.57
2019-04-19T09:50:40.416Z,11.50
2019-04-19T09:53:25.008Z,10.57
2019-04-19T09:55:45.691Z,11.70
2019-04-19T09:58:11.650Z,11.57
2019-04-19T10:00:23.573Z,11.13
2019-04-19T10:02:55.642Z,10.20
2019-04-19T10:05:19.018Z,10.10
2019-04-19T10:07:47.040Z,10.63
2019-04-19T10:10:16.141Z,11.00
2019-04-19T10:12:43.417Z,10.37
2019-04-19T10:15:46.022Z,10.60
2019-04-19T10:18:14.622Z,10.53
2019-04-19T10:21:00.697Z,10.77
2019-04-19T10:23:27.622Z,12.60
2019-04-19T10:25:58.146Z,10.40
2019-04-19T10:28:24.138Z,11.20
2019-04-19T10:31:17.696Z,11.87
2019-04-19T10:33:54.493Z,10.03
2019-04-19T10:36:14.848Z,11.50
2019-04-19T10:38:43.433Z,10.90
2019-04-19T10:41:11.625Z,11.10
2019-04-19T10:43:39.134Z,10.67
2019-04-19T10:46:06.799Z,10.67
2019-04-19T10:48:34.804Z,10.80
2019-04-19T10:51:08.764Z,11.00
2019-04-19T10:53:36.549Z,11.67
2019-04-19T10:56:14.377Z,10.20
2019-04-19T10:58:41.010Z,10.20
2019-04-19T11:01:11.551Z,11.87
2019-04-19T11:03:39.078Z,11.20
2019-04-19T11:06:05.944Z,11.23
2019-04-19T11:08:32.796Z,11.47
2019-04-19T11:10:59.645Z,10.60
2019-04-19T11:13:29.592Z,11.10
2019-04-19T11:15:58.170Z,10.73
2019-04-19T11:18:25.611Z,10.13
2019-04-19T11:20:55.573Z,9.60
2019-04-19T11:23:23.851Z,10.47
2019-04-19T11:25:52.112Z,11.43
2019-04-19T11:28:20.937Z,10.77
2019-04-19T11:31:18.887Z,11.30
2019-04-19T11:33:44.976Z,11.70
2019-04-19T11:36:11.627Z,10.60
2019-04-19T11:38:38.798Z,10.97
2019-04-19T11:41:05.917Z,11.17
2019-04-19T11:43:33.672Z,10.67
2019-04-19T11:46:00.569Z,11.97
2019-04-19T11:48:29.848Z,11.70
2019-04-19T11:50:55.974Z,12.10
2019-04-19T11:53:30.182Z,11.80
2019-04-19T11:56:16.371Z,10.73
2019-04-19T11:58:44.520Z,10.27
2019-04-19T12:01:16.314Z,11.70
2019-04-19T12:03:43.730Z,9.50
2019-04-19T12:06:12.158Z,11.37
2019-04-19T12:08:42.027Z,11.00
2019-04-19T12:11:08.431Z,11.53
2019-04-19T12:13:38.407Z,10.80
2019-04-19T12:16:06.040Z,10.57
2019-04-19T12:18:34.815Z,10.40
2019-04-19T12:21:05.073Z,11.23
2019-04-19T12:23:32.717Z,10.10
2019-04-19T12:25:59.873Z,19.67
2019-04-19T12:28:27.879Z,15.37
2019-04-19T12:30:58.557Z,16.23
2019-04-19T12:33:27.010Z,10.90
2019-04-19T12:35:55.012Z,10.77
2019-04-19T12:38:22.244Z,13.07
2019-04-19T12:40:58.217Z,10.20
2019-04-19T12:43:26.009Z,9.83
2019-04-19T12:45:55.132Z,10.97
2019-04-19T12:48:23.806Z,9.60
2019-04-19T12:50:51.616Z,11.37
2019-04-19T12:53:19.006Z,9.20
2019-04-19T12:55:48.471Z,10.83
2019-04-19T12:58:15.946Z,10.17
2019-04-19T13:01:21.892Z,10.60
2019-04-19T13:03:57.108Z,10.63
2019-04-19T13:06:27.270Z,10.90
2019-04-19T13:08:55.020Z,10.10
2019-04-19T13:11:23.007Z,10.77
2019-04-19T13:13:50.180Z,9.37
2019-04-19T13:16:17.039Z,10.23
2019-04-19T13:18:45.890Z,10.23
2019-04-19T13:21:13.845Z,9.07
2019-04-19T13:23:40.817Z,9.30
2019-04-19T13:26:09.271Z,11.43
2019-04-19T13:28:37.629Z,9.37
2019-04-19T13:31:04.431Z,8.73
2019-04-19T13:33:32.446Z,8.23
2019-04-19T13:36:01.368Z,9.60
2019-04-19T13:38:32.914Z,9.23
2019-04-19T13:41:19.259Z,9.33
2019-04-19T13:43:47.286Z,8.97
2019-04-19T13:46:15.275Z,8.50
2019-04-19T13:48:43.002Z,8.57
2019-04-19T13:51:09.922Z,7.50
2019-04-19T13:53:38.557Z,8.10
2019-04-19T13:56:07.138Z,7.67
2019-04-19T13:58:34.187Z,7.50
2019-04-19T14:01:00.828Z,6.57
2019-04-19T14:03:29.635Z,8.30
2019-04-19T14:05:57.755Z,6.87
2019-04-19T14:08:24.959Z,7.87
2019-04-19T14:10:53.294Z,7.97
2019-04-19T14:13:21.149Z,7.33
2019-04-19T14:15:48.922Z,6.67
2019-04-19T14:18:17.215Z,6.40
2019-04-19T14:20:48.791Z,5.37
2019-04-19T14:23:13.458Z,6.60
2019-04-19T14:25:41.371Z,5.63
2019-04-19T14:28:11.394Z,6.00
2019-04-19T14:30:39.597Z,5.70
2019-04-19T14:33:06.647Z,6.00
2019-04-19T14:35:34.258Z,5.73
2019-04-19T14:38:01.420Z,6.70
2019-04-19T14:40:29.179Z,5.80
2019-04-19T14:42:56.487Z,6.17
2019-04-19T14:45:26.616Z,6.50
2019-04-19T14:47:54.974Z,5.70
2019-04-19T14:50:23.191Z,5.90
2019-04-19T14:52:51.355Z,5.50
2019-04-19T14:55:18.483Z,5.73
2019-04-19T14:57:46.212Z,6.13
2019-04-19T15:00:16.833Z,4.90
2019-04-19T15:02:49.798Z,5.33
2019-04-19T15:05:25.667Z,5.27
2019-04-19T15:07:52.681Z,5.03
2019-04-19T15:10:20.176Z,5.10
2019-04-19T15:12:47.355Z,5.27
2019-04-19T15:15:14.655Z,4.47
2019-04-19T15:17:43.072Z,4.47
2019-04-19T15:20:12.093Z,5.60
2019-04-19T15:22:40.117Z,5.03
2019-04-19T15:25:08.638Z,5.10
2019-04-19T15:27:37.007Z,5.37
2019-04-19T15:30:05.338Z,5.30
2019-04-19T15:32:32.891Z,5.17
2019-04-19T15:34:59.735Z,5.73
2019-04-19T15:37:27.419Z,5.10
2019-04-19T15:39:56.126Z,5.03
2019-04-19T15:42:23.235Z,5.67
2019-04-19T15:44:50.989Z,4.20
2019-04-19T15:47:18.969Z,4.40
2019-04-19T15:49:46.153Z,4.80
2019-04-19T15:52:14.277Z,4.23
2019-04-19T15:54:41.809Z,5.43
2019-04-19T15:57:10.131Z,5.97
2019-04-19T15:59:37.036Z,3.73
2019-04-19T16:02:11.887Z,4.50
2019-04-19T16:05:04.464Z,4.80
2019-04-19T16:07:37.779Z,4.27
2019-04-19T16:10:24.479Z,3.57
2019-04-19T16:12:51.802Z,4.63
2019-04-19T16:15:20.045Z,3.53
2019-04-19T16:17:48.032Z,4.07
2019-04-19T16:20:15.584Z,3.57
2019-04-19T16:22:42.720Z,4.10
2019-04-19T16:25:10.004Z,3.73
2019-04-19T16:27:37.234Z,3.70
2019-04-19T16:30:06.041Z,3.30
2019-04-19T16:32:33.371Z,3.57
2019-04-19T16:35:01.632Z,4.07
2019-04-19T16:37:28.887Z,2.90
2019-04-19T16:39:56.041Z,3.00
2019-04-19T16:42:23.235Z,3.30
2019-04-19T16:44:50.242Z,3.70
2019-04-19T16:47:17.379Z,3.30
2019-04-19T16:49:46.675Z,3.50
2019-04-19T16:52:15.077Z,4.07
2019-04-19T16:54:42.252Z,4.50
2019-04-19T16:57:17.012Z,3.97
2019-04-19T16:59:39.711Z,4.87
2019-04-19T17:02:08.875Z,5.53
2019-04-19T17:04:36.670Z,3.50
2019-04-19T17:07:04.898Z,3.30
2019-04-19T17:09:33.015Z,3.90
2019-04-19T17:11:59.876Z,4.00
2019-04-19T17:14:27.232Z,3.73
2019-04-19T17:17:07.150Z,3.70
2019-04-19T17:19:53.415Z,4.60
2019-04-19T17:22:26.303Z,4.17
2019-04-19T17:24:52.484Z,3.33
2019-04-19T17:27:27.188Z,3.50
2019-04-19T17:29:49.305Z,3.20
2019-04-19T17:32:18.562Z,3.83
2019-04-19T17:34:46.174Z,4.13
2019-04-19T17:37:14.258Z,4.40
2019-04-19T17:39:42.514Z,4.00
2019-04-19T17:42:12.554Z,4.17
2019-04-19T17:44:40.107Z,4.37
2019-04-19T17:47:09.915Z,4.13
2019-04-19T17:49:36.711Z,4.63
2019-04-19T17:52:10.205Z,4.27
2019-04-19T17:54:50.976Z,4.93
2019-04-19T17:57:00.819Z,5.70
2019-04-19T17:59:28.033Z,5.00
2019-04-19T18:01:55.149Z,4.63
2019-04-19T18:04:22.236Z,4.83
2019-04-19T18:06:54.713Z,5.77
2019-04-19T18:09:20.949Z,5.33
2019-04-19T18:11:47.333Z,5.70
2019-04-19T18:14:15.669Z,6.10
2019-04-19T18:16:42.827Z,5.00
2019-04-19T18:19:09.714Z,6.30
2019-04-19T18:21:40.361Z,5.47
2019-04-19T18:24:10.350Z,5.70
2019-04-19T18:26:35.492Z,7.27
2019-04-19T18:29:03.071Z,6.67
2019-04-19T18:31:37.566Z,5.60
2019-04-19T18:36:55.976Z,6.50
2019-04-19T18:39:22.349Z,5.00
2019-04-19T18:41:49.642Z,5.70
2019-04-19T18:44:22.960Z,6.07
2019-04-19T18:46:46.835Z,5.60
2019-04-19T18:49:14.078Z,6.23
2019-04-19T18:51:44.911Z,6.70
2019-04-19T18:54:19.325Z,7.00
2019-04-19T18:56:40.272Z,6.53
2019-04-19T18:59:14.267Z,7.57
2019-04-19T19:01:38.367Z,6.60
2019-04-19T19:04:05.665Z,8.00
2019-04-19T19:06:38.428Z,7.13
2019-04-19T19:09:09.680Z,7.13
2019-04-19T19:11:36.415Z,6.50
2019-04-19T19:14:10.221Z,7.17
2019-04-19T19:16:35.114Z,7.93
2019-04-19T19:19:04.144Z,6.87
2019-04-19T19:21:36.352Z,6.57
2019-04-19T19:24:23.574Z,8.93
2019-04-19T19:26:42.877Z,8.80
2019-04-19T19:29:00.282Z,7.40
2019-04-19T19:31:29.121Z,7.03
2019-04-19T19:33:56.522Z,7.20
2019-04-19T19:36:33.348Z,6.53
2019-04-19T19:39:02.029Z,6.60
2019-04-19T19:41:40.368Z,6.60
2019-04-19T19:43:59.857Z,6.67
2019-04-19T19:46:35.482Z,6.80
2019-04-19T19:49:27.069Z,7.80
2019-04-19T19:51:34.709Z,7.60
2019-04-19T19:54:29.804Z,7.63
2019-04-19T19:56:40.729Z,7.90
2019-04-19T19:58:55.947Z,8.40
2019-04-19T20:01:29.276Z,7.50
2019-04-19T20:03:47.503Z,8.80
2019-04-19T20:06:17.371Z,8.00
2019-04-19T20:08:44.015Z,7.80
2019-04-19T20:11:17.506Z,8.30
2019-04-19T20:13:42.552Z,7.27
2019-04-19T20:16:14.772Z,7.10
2019-04-19T20:18:39.606Z,7.37
2019-04-19T20:21:10.717Z,6.67
2019-04-19T20:23:42.741Z,8.73
2019-04-19T20:26:12.984Z,8.17
2019-04-19T20:28:34.742Z,8.20
2019-04-19T20:31:02.525Z,8.70
2019-04-19T20:33:38.555Z,8.53
2019-04-19T20:36:02.386Z,9.57
2019-04-19T20:38:35.699Z,9.30
2019-04-19T20:40:58.779Z,8.20
2019-04-19T20:43:39.596Z,8.20
2019-04-19T20:45:56.354Z,8.53
2019-04-19T20:48:26.805Z,7.97
2019-04-19T20:51:06.425Z,8.20
2019-04-19T20:53:35.698Z,8.20
2019-04-19T20:56:29.289Z,8.07
2019-04-19T20:58:35.496Z,9.43
2019-04-19T21:00:56.912Z,8.17
2019-04-19T21:03:28.331Z,9.23
2019-04-19T21:05:56.317Z,7.73
2019-04-19T21:08:25.410Z,8.07
2019-04-19T21:10:57.815Z,7.67
2019-04-19T21:13:23.077Z,9.17
2019-04-19T21:15:50.105Z,8.63
2019-04-19T21:18:22.682Z,7.63
2019-04-19T21:20:48.613Z,9.30
2019-04-19T21:23:22.143Z,8.80
2019-04-19T21:25:50.509Z,7.93
2019-04-19T21:28:12.784Z,8.13
2019-04-19T21:30:47.061Z,8.30
2019-04-19T21:33:13.696Z,9.50
2019-04-19T21:35:44.513Z,8.50
2019-04-19T21:38:13.829Z,8.40
2019-04-19T21:40:40.099Z,8.73
2019-04-19T21:43:07.735Z,8.60
2019-04-19T21:45:41.860Z,7.87
2019-04-19T21:48:03.592Z,8.70
2019-04-19T21:50:38.851Z,8.37
2019-04-19T21:53:02.070Z,8.73
2019-04-19T21:55:33.925Z,8.37
2019-04-19T21:58:00.234Z,8.43
2019-04-19T22:00:54.394Z,8.60
2019-04-19T22:03:22.806Z,9.53
2019-04-19T22:05:47.407Z,8.47
2019-04-19T22:08:20.982Z,9.17
2019-04-19T22:10:47.213Z,9.23
2019-04-19T22:13:13.136Z,9.80
2019-04-19T22:15:44.258Z,8.60
2019-04-19T22:18:10.495Z,9.47
2019-04-19T22:20:38.617Z,9.20
2019-04-19T22:23:08.571Z,8.90
2019-04-19T22:25:45.380Z,10.13
2019-04-19T22:28:03.570Z,9.40
2019-04-19T22:30:38.856Z,9.90
2019-04-19T22:33:03.037Z,9.10
2019-04-19T22:35:30.318Z,9.70
2019-04-19T22:38:00.696Z,9.70
2019-04-19T22:40:26.887Z,8.67
2019-04-19T22:43:02.656Z,9.80
2019-04-19T22:45:24.211Z,9.10
2019-04-19T22:47:53.142Z,9.17
2019-04-19T22:50:26.473Z,11.00
2019-04-19T22:52:48.366Z,10.60
2019-04-19T22:55:17.640Z,9.50
2019-04-19T22:57:50.183Z,8.83
2019-04-19T23:00:13.887Z,9.90
2019-04-19T23:02:58.911Z,8.50
2019-04-19T23:05:36.779Z,10.23
2019-04-19T23:07:59.923Z,9.50
2019-04-19T23:10:39.110Z,9.03
2019-04-19T23:12:57.458Z,10.13
2019-04-19T23:15:28.426Z,11.47
2019-04-19T23:17:54.488Z,10.10
2019-04-19T23:20:27.125Z,10.27
2019-04-19T23:22:51.563Z,10.60
2019-04-19T23:25:22.049Z,10.57
2019-04-19T23:27:51.319Z,11.07
2019-04-19T23:30:22.310Z,11.60
2019-04-19T23:32:48.152Z,10.50
2019-04-19T23:35:16.249Z,9.40
2019-04-19T23:37:44.170Z,11.67
2019-04-19T23:40:13.110Z,11.93
2019-04-19T23:42:42.334Z,9.20
2019-04-19T23:45:10.316Z,11.68
2019-04-19T23:47:40.334Z,10.23
2019-04-19T23:50:06.368Z,11.57
2019-04-19T23:52:33.111Z,9.30
2019-04-19T23:55:00.123Z,11.20
2019-04-19T23:57:38.015Z,11.77
